createdAt,value
2017-12-12T00:00:06.447Z,6.43
2017-12-12T00:02:33.196Z,12.40
2017-12-12T00:04:59.921Z,7.03
2017-12-12T00:07:26.689Z,10.97
2017-12-12T00:09:53.471Z,6.10
2017-12-12T00:12:20.235Z,12.37
2017-12-12T00:14:47.019Z,7.33
2017-12-12T00:17:13.801Z,8.93
2017-12-12T00:19:40.872Z,4.97
2017-12-12T00:22:07.665Z,4.43
2017-12-12T00:24:34.404Z,6.90
2017-12-12T00:27:01.175Z,5.27
2017-12-12T00:29:27.951Z,5.60
2017-12-12T00:31:54.686Z,4.30
2017-12-12T00:34:21.434Z,7.23
2017-12-12T00:36:48.171Z,5.50
2017-12-12T00:39:14.933Z,7.43
2017-12-12T00:41:41.716Z,5.57
2017-12-12T00:44:08.435Z,6.00
2017-12-12T00:46:35.197Z,10.90
2017-12-12T00:49:01.940Z,6.10
2017-12-12T00:51:28.688Z,7.33
2017-12-12T00:53:55.479Z,9.30
2017-12-12T00:56:22.258Z,6.80
2017-12-12T00:58:49.016Z,10.03
2017-12-12T01:01:15.872Z,10.17
2017-12-12T01:03:42.695Z,8.30
2017-12-12T01:06:09.458Z,8.70
2017-12-12T01:08:36.227Z,5.70
2017-12-12T01:11:02.988Z,9.40
2017-12-12T01:13:29.725Z,10.53
2017-12-12T01:15:56.496Z,9.00
2017-12-12T01:18:23.242Z,6.13
2017-12-12T01:20:50.083Z,11.00
2017-12-12T01:23:16.821Z,7.60
2017-12-12T01:25:43.689Z,7.50
2017-12-12T01:28:10.480Z,5.37
2017-12-12T01:30:37.193Z,9.90
2017-12-12T01:33:03.970Z,17.90
2017-12-12T01:35:30.766Z,6.67
2017-12-12T01:37:57.523Z,8.90
2017-12-12T01:40:24.332Z,10.63
2017-12-12T01:42:51.127Z,7.40
2017-12-12T01:45:17.865Z,11.60
2017-12-12T01:47:44.664Z,11.30
2017-12-12T01:50:11.438Z,8.27
2017-12-12T01:52:38.186Z,6.93
2017-12-12T01:55:05.011Z,8.33
2017-12-12T01:57:31.793Z,5.13
2017-12-12T01:59:58.594Z,5.17
2017-12-12T02:02:25.357Z,8.47
2017-12-12T02:04:52.116Z,6.80
2017-12-12T02:07:18.907Z,11.18
2017-12-12T02:09:45.747Z,12.83
2017-12-12T02:12:12.528Z,8.30
2017-12-12T02:14:39.332Z,7.83
2017-12-12T02:17:06.155Z,6.03
2017-12-12T02:19:33.047Z,9.63
2017-12-12T02:21:59.851Z,10.70
2017-12-12T02:24:26.675Z,11.20
2017-12-12T02:26:53.501Z,6.90
2017-12-12T02:29:20.283Z,8.77
2017-12-12T02:31:47.071Z,10.13
2017-12-12T02:34:13.864Z,6.47
2017-12-12T02:36:40.657Z,8.87
2017-12-12T02:39:07.467Z,8.77
2017-12-12T02:41:34.242Z,7.07
2017-12-12T02:44:01.052Z,10.13
2017-12-12T02:46:27.858Z,8.40
2017-12-12T02:48:54.660Z,5.80
2017-12-12T02:51:21.441Z,10.93
2017-12-12T02:53:48.210Z,8.13
2017-12-12T02:56:15.000Z,7.70
2017-12-12T02:58:41.754Z,6.07
2017-12-12T03:01:08.554Z,6.47
2017-12-12T03:03:35.369Z,8.33
2017-12-12T03:06:02.181Z,8.63
2017-12-12T03:08:28.981Z,7.63
2017-12-12T03:10:55.752Z,5.93
2017-12-12T03:13:22.550Z,13.57
2017-12-12T03:15:49.369Z,8.47
2017-12-12T03:18:16.144Z,11.13
2017-12-12T03:20:42.957Z,7.83
2017-12-12T03:23:09.723Z,9.87
2017-12-12T03:25:36.492Z,11.90
2017-12-12T03:28:03.228Z,14.67
2017-12-12T03:30:30.011Z,8.57
2017-12-12T03:32:56.784Z,11.83
2017-12-12T03:35:23.602Z,10.70
2017-12-12T03:37:50.382Z,5.73
2017-12-12T03:40:17.165Z,14.37
2017-12-12T03:42:43.897Z,8.30
2017-12-12T03:45:10.669Z,11.80
2017-12-12T03:47:37.473Z,7.77
2017-12-12T03:50:04.242Z,11.23
2017-12-12T03:52:31.000Z,7.97
2017-12-12T03:54:57.768Z,7.13
2017-12-12T03:57:24.530Z,6.87
2017-12-12T03:59:51.318Z,13.23
2017-12-12T04:02:18.193Z,7.33
2017-12-12T04:04:45.010Z,9.13
2017-12-12T04:07:11.800Z,10.93
2017-12-12T04:09:38.605Z,9.83
2017-12-12T04:12:05.401Z,12.07
2017-12-12T04:14:32.195Z,9.63
2017-12-12T04:16:58.963Z,10.97
2017-12-12T04:19:25.750Z,8.63
2017-12-12T04:21:52.547Z,8.40
2017-12-12T04:24:19.320Z,3.23
2017-12-12T04:26:46.122Z,2.03
2017-12-12T04:29:12.904Z,2.60
2017-12-12T04:31:39.664Z,4.90
2017-12-12T04:34:06.469Z,3.20
2017-12-12T04:36:33.241Z,2.30
2017-12-12T04:39:00.051Z,2.73
2017-12-12T04:41:26.837Z,4.53
2017-12-12T04:43:53.648Z,1.90
2017-12-12T04:46:20.488Z,1.47
2017-12-12T04:48:47.420Z,3.17
2017-12-12T04:51:14.183Z,1.70
2017-12-12T04:53:40.933Z,3.23
2017-12-12T04:56:07.726Z,4.27
2017-12-12T04:58:34.510Z,3.30
2017-12-12T05:01:01.260Z,1.70
2017-12-12T05:03:28.042Z,2.63
2017-12-12T05:05:54.841Z,9.27
2017-12-12T05:08:21.620Z,2.47
2017-12-12T05:10:48.373Z,3.50
2017-12-12T05:13:15.157Z,3.90
2017-12-12T05:15:41.920Z,3.10
2017-12-12T05:18:08.716Z,4.10
2017-12-12T05:20:35.538Z,5.90
2017-12-12T05:23:02.324Z,1.57
2017-12-12T05:25:29.083Z,6.87
2017-12-12T05:27:55.922Z,1.70
2017-12-12T05:30:22.662Z,2.23
2017-12-12T05:32:49.473Z,1.97
2017-12-12T05:35:16.282Z,1.50
2017-12-12T05:37:43.047Z,1.67
2017-12-12T05:40:09.863Z,2.80
2017-12-12T05:42:36.680Z,2.30
2017-12-12T05:45:03.458Z,2.33
2017-12-12T05:47:30.219Z,1.70
2017-12-12T05:49:57.022Z,2.43
2017-12-12T05:52:23.811Z,2.40
2017-12-12T05:54:50.580Z,3.33
2017-12-12T05:57:17.429Z,3.20
2017-12-12T05:59:44.252Z,3.53
2017-12-12T06:02:11.223Z,2.27
2017-12-12T06:04:38.045Z,4.93
2017-12-12T06:07:04.938Z,4.30
2017-12-12T06:09:31.738Z,2.97
2017-12-12T06:11:58.677Z,2.07
2017-12-12T06:14:25.534Z,3.47
2017-12-12T06:16:52.451Z,7.77
2017-12-12T06:19:19.285Z,9.73
2017-12-12T06:21:46.128Z,9.03
2017-12-12T06:24:12.860Z,8.80
2017-12-12T06:26:39.676Z,5.77
2017-12-12T06:29:06.448Z,5.40
2017-12-12T06:31:33.428Z,4.57
2017-12-12T06:34:00.235Z,5.73
2017-12-12T06:36:27.042Z,4.90
2017-12-12T06:38:53.946Z,7.83
2017-12-12T06:41:20.744Z,6.50
2017-12-12T06:43:47.537Z,6.10
2017-12-12T06:46:14.324Z,5.93
2017-12-12T06:48:41.265Z,3.10
2017-12-12T06:51:08.112Z,3.30
2017-12-12T06:53:35.541Z,5.83
2017-12-12T06:56:02.363Z,5.60
2017-12-12T06:58:29.223Z,5.93
2017-12-12T07:00:56.004Z,6.37
2017-12-12T07:03:22.791Z,2.03
2017-12-12T07:05:49.587Z,3.97
2017-12-12T07:08:16.410Z,4.73
2017-12-12T07:10:43.263Z,2.73
2017-12-12T07:13:10.107Z,4.10
2017-12-12T07:15:36.982Z,3.40
2017-12-12T07:18:03.896Z,1.43
2017-12-12T07:20:30.820Z,1.40
2017-12-12T07:22:57.741Z,1.50
2017-12-12T07:25:24.592Z,3.83
2017-12-12T07:27:51.346Z,1.40
2017-12-12T07:30:18.197Z,1.10
2017-12-12T07:32:44.929Z,1.17
2017-12-12T07:35:11.626Z,1.87
2017-12-12T07:37:38.354Z,1.87
2017-12-12T07:40:05.082Z,1.83
2017-12-12T07:42:31.787Z,1.10
2017-12-12T07:44:58.527Z,1.10
2017-12-12T07:47:25.266Z,3.63
2017-12-12T07:49:52.006Z,1.40
2017-12-12T07:52:18.735Z,1.40
2017-12-12T07:54:45.527Z,2.93
2017-12-12T07:57:12.220Z,1.70
2017-12-12T07:59:38.947Z,1.23
2017-12-12T08:02:05.697Z,1.43
2017-12-12T08:04:32.441Z,2.50
2017-12-12T08:06:59.199Z,1.30
2017-12-12T08:09:26.051Z,1.40
2017-12-12T08:11:52.829Z,1.20
2017-12-12T08:14:19.571Z,1.43
2017-12-12T08:16:46.297Z,2.03
2017-12-12T08:19:13.018Z,1.77
2017-12-12T08:21:39.730Z,1.30
2017-12-12T08:24:06.463Z,1.17
2017-12-12T08:26:33.187Z,0.60
2017-12-12T08:28:59.903Z,0.50
2017-12-12T08:31:26.650Z,0.70
2017-12-12T08:33:53.388Z,0.73
2017-12-12T08:36:20.134Z,2.40
2017-12-12T08:38:46.902Z,1.37
2017-12-12T08:41:13.608Z,0.60
2017-12-12T08:43:40.330Z,0.60
2017-12-12T08:46:07.072Z,1.07
2017-12-12T08:48:33.818Z,0.70
2017-12-12T08:51:00.547Z,0.83
2017-12-12T08:53:27.294Z,0.60
2017-12-12T08:55:54.011Z,2.17
2017-12-12T08:58:20.725Z,0.60
2017-12-12T09:00:47.454Z,0.70
2017-12-12T09:03:14.157Z,0.60
2017-12-12T09:05:40.901Z,0.87
2017-12-12T09:08:07.658Z,0.90
2017-12-12T09:10:34.383Z,0.60
2017-12-12T09:13:01.114Z,0.70
2017-12-12T09:15:27.854Z,0.50
2017-12-12T09:17:54.599Z,0.60
2017-12-12T09:20:21.309Z,0.50
2017-12-12T09:22:48.070Z,0.53
2017-12-12T09:25:14.789Z,0.97
2017-12-12T09:27:41.530Z,0.53
2017-12-12T09:30:08.249Z,0.70
2017-12-12T09:32:34.965Z,0.70
2017-12-12T09:35:01.715Z,0.63
2017-12-12T09:37:28.449Z,2.60
2017-12-12T09:39:55.188Z,0.90
2017-12-12T09:42:21.976Z,0.83
2017-12-12T09:44:48.710Z,0.73
2017-12-12T09:47:15.426Z,0.60
2017-12-12T09:49:42.151Z,0.60
2017-12-12T09:52:08.884Z,0.80
2017-12-12T09:54:35.616Z,3.23
2017-12-12T09:57:02.333Z,1.63
2017-12-12T09:59:29.072Z,1.50
2017-12-12T10:01:55.795Z,4.10
2017-12-12T10:04:22.521Z,3.73
2017-12-12T10:06:49.282Z,3.80
2017-12-12T10:09:16.012Z,3.73
2017-12-12T10:11:42.727Z,1.73
2017-12-12T10:14:09.454Z,2.83
2017-12-12T10:16:36.188Z,3.13
2017-12-12T10:19:02.943Z,4.80
2017-12-12T10:21:29.679Z,3.07
2017-12-12T10:23:56.423Z,4.47
2017-12-12T10:26:23.211Z,2.90
2017-12-12T10:28:49.947Z,2.97
2017-12-12T10:31:16.670Z,5.43
2017-12-12T10:33:43.377Z,4.83
2017-12-12T10:36:10.224Z,3.60
2017-12-12T10:38:36.942Z,3.87
2017-12-12T10:41:03.722Z,3.50
2017-12-12T10:43:30.498Z,4.50
2017-12-12T10:45:57.241Z,3.00
2017-12-12T10:48:23.981Z,4.53
2017-12-12T10:50:50.714Z,5.70
2017-12-12T10:53:17.483Z,3.23
2017-12-12T10:55:44.193Z,3.37
2017-12-12T10:58:10.981Z,2.97
2017-12-12T11:00:37.713Z,7.30
2017-12-12T11:03:04.458Z,3.10
2017-12-12T11:05:31.233Z,5.93
2017-12-12T11:07:57.937Z,5.50
2017-12-12T11:10:24.658Z,3.23
2017-12-12T11:12:51.390Z,5.13
2017-12-12T11:15:18.118Z,2.47
2017-12-12T11:17:44.833Z,2.60
2017-12-12T11:20:11.556Z,2.80
2017-12-12T11:22:38.334Z,2.50
2017-12-12T11:25:05.062Z,3.20
2017-12-12T11:27:31.825Z,7.93
2017-12-12T11:29:58.570Z,2.63
2017-12-12T11:32:25.337Z,2.17
2017-12-12T11:34:52.079Z,5.20
2017-12-12T11:37:24.822Z,2.93
2017-12-12T11:39:51.595Z,2.37
2017-12-12T11:42:18.329Z,3.00
2017-12-12T11:44:45.048Z,4.57
2017-12-12T11:47:11.750Z,2.30
2017-12-12T11:49:38.519Z,4.27
2017-12-12T11:52:05.280Z,1.57
2017-12-12T11:54:31.999Z,4.40
2017-12-12T11:56:58.786Z,8.90
2017-12-12T11:59:25.522Z,5.70
2017-12-12T12:01:52.236Z,1.80
2017-12-12T12:04:18.999Z,4.13
2017-12-12T12:06:45.724Z,4.27
2017-12-12T12:09:12.441Z,3.70
2017-12-12T12:11:39.204Z,5.80
2017-12-12T12:14:05.949Z,2.83
2017-12-12T12:16:32.691Z,2.60
2017-12-12T12:18:59.418Z,5.40
2017-12-12T12:21:26.171Z,2.80
2017-12-12T12:23:52.903Z,5.10
2017-12-12T12:26:19.661Z,1.97
2017-12-12T12:28:46.435Z,5.10
2017-12-12T12:31:13.179Z,10.87
2017-12-12T12:33:39.939Z,7.03
2017-12-12T12:36:06.675Z,2.10
2017-12-12T12:38:33.433Z,5.63
2017-12-12T12:41:00.141Z,2.73
2017-12-12T12:43:26.878Z,3.60
2017-12-12T12:45:53.624Z,2.03
2017-12-12T12:48:20.367Z,3.40
2017-12-12T12:50:47.094Z,5.40
2017-12-12T12:53:13.815Z,3.13
2017-12-12T12:55:40.696Z,4.47
2017-12-12T12:58:07.424Z,7.00
2017-12-12T13:00:34.171Z,6.87
2017-12-12T13:03:00.908Z,7.53
2017-12-12T13:05:27.648Z,6.40
2017-12-12T13:07:54.366Z,3.90
2017-12-12T13:10:21.166Z,5.60
2017-12-12T13:12:47.874Z,4.40
2017-12-12T13:15:14.593Z,6.67
2017-12-12T13:17:41.324Z,5.43
2017-12-12T13:20:08.029Z,8.20
2017-12-12T13:22:34.743Z,4.93
2017-12-12T13:25:01.509Z,5.27
2017-12-12T13:27:28.241Z,5.67
2017-12-12T13:29:54.966Z,5.13
2017-12-12T13:32:21.715Z,5.67
2017-12-12T13:34:48.440Z,7.23
2017-12-12T13:37:15.201Z,5.77
2017-12-12T13:39:41.945Z,8.97
2017-12-12T13:42:08.687Z,8.03
2017-12-12T13:44:35.482Z,7.80
2017-12-12T13:47:02.217Z,7.07
2017-12-12T13:49:28.972Z,7.03
2017-12-12T13:51:55.718Z,6.57
2017-12-12T13:54:22.529Z,5.60
2017-12-12T13:56:49.333Z,6.10
2017-12-12T13:59:16.758Z,8.53
2017-12-12T14:01:43.556Z,7.90
2017-12-12T14:04:10.309Z,9.47
2017-12-12T14:06:37.057Z,5.57
2017-12-12T14:09:04.295Z,8.40
2017-12-12T14:11:31.068Z,5.30
2017-12-12T14:13:57.793Z,6.07
2017-12-12T14:16:24.556Z,6.53
2017-12-12T14:18:51.279Z,6.90
2017-12-12T14:21:17.985Z,6.67
2017-12-12T14:23:44.730Z,8.57
2017-12-12T14:26:11.435Z,6.80
2017-12-12T14:28:38.164Z,6.80
2017-12-12T14:31:04.889Z,14.47
2017-12-12T14:33:31.590Z,8.73
2017-12-12T14:35:58.330Z,7.27
2017-12-12T14:38:25.057Z,6.90
2017-12-12T14:40:51.760Z,6.37
2017-12-12T14:43:18.482Z,6.60
2017-12-12T14:45:45.227Z,6.43
2017-12-12T14:48:11.932Z,8.30
2017-12-12T14:50:38.656Z,6.57
2017-12-12T14:53:05.418Z,6.50
2017-12-12T14:55:32.152Z,7.00
2017-12-12T14:57:58.984Z,7.50
2017-12-12T15:00:25.769Z,6.80
2017-12-12T15:02:52.556Z,6.90
2017-12-12T15:05:19.268Z,5.70
2017-12-12T15:07:46.090Z,6.80
2017-12-12T15:10:12.798Z,5.17
2017-12-12T15:12:39.529Z,5.20
2017-12-12T15:15:06.259Z,4.80
2017-12-12T15:17:33.029Z,5.20
2017-12-12T15:19:59.736Z,5.30
2017-12-12T15:22:26.469Z,5.87
2017-12-12T15:24:53.176Z,5.23
2017-12-12T15:27:19.895Z,5.90
2017-12-12T15:29:46.633Z,4.63
2017-12-12T15:32:13.355Z,4.83
2017-12-12T15:34:40.128Z,4.27
2017-12-12T15:37:06.863Z,5.27
2017-12-12T15:39:33.614Z,4.93
2017-12-12T15:42:00.333Z,3.23
2017-12-12T15:44:27.042Z,2.97
2017-12-12T15:46:53.770Z,3.23
2017-12-12T15:49:20.518Z,2.87
2017-12-12T15:51:47.240Z,2.60
2017-12-12T15:54:13.957Z,5.23
2017-12-12T15:56:40.680Z,3.00
2017-12-12T15:59:07.377Z,2.37
2017-12-12T16:01:34.088Z,2.37
2017-12-12T16:04:00.812Z,2.00
2017-12-12T16:06:27.549Z,2.30
2017-12-12T16:08:54.271Z,4.13
2017-12-12T16:11:21.003Z,2.60
2017-12-12T16:13:47.744Z,3.03
2017-12-12T16:16:14.463Z,3.40
2017-12-12T16:18:41.182Z,2.13
2017-12-12T16:21:07.930Z,2.33
2017-12-12T16:23:34.653Z,2.40
2017-12-12T16:26:01.365Z,3.13
2017-12-12T16:28:28.091Z,3.10
2017-12-12T16:30:54.803Z,3.57
2017-12-12T16:33:21.558Z,11.53
2017-12-12T16:35:48.330Z,12.47
2017-12-12T16:38:15.102Z,6.30
2017-12-12T16:40:41.865Z,9.03
2017-12-12T16:43:08.620Z,4.83
2017-12-12T16:45:35.393Z,8.40
2017-12-12T16:48:02.126Z,5.70
2017-12-12T16:50:28.934Z,5.30
2017-12-12T16:52:55.646Z,4.30
2017-12-12T16:55:22.372Z,3.93
2017-12-12T16:57:49.124Z,3.70
2017-12-12T17:00:15.853Z,5.00
2017-12-12T17:02:42.641Z,4.30
2017-12-12T17:05:09.383Z,5.20
2017-12-12T17:07:36.112Z,5.27
2017-12-12T17:10:02.880Z,5.40
2017-12-12T17:12:29.627Z,4.47
2017-12-12T17:14:56.346Z,3.93
2017-12-12T17:17:23.095Z,3.50
2017-12-12T17:19:49.841Z,3.80
2017-12-12T17:22:16.589Z,4.40
2017-12-12T17:24:43.342Z,4.00
2017-12-12T17:27:10.142Z,4.80
2017-12-12T17:29:36.854Z,4.10
2017-12-12T17:32:03.615Z,4.00
2017-12-12T17:34:30.334Z,3.60
2017-12-12T17:36:57.063Z,4.17
2017-12-12T17:39:23.802Z,3.90
2017-12-12T17:41:50.515Z,4.13
2017-12-12T17:44:17.258Z,4.77
2017-12-12T17:46:44.157Z,4.43
2017-12-12T17:49:10.899Z,5.03
2017-12-12T17:51:37.616Z,6.03
2017-12-12T17:54:04.332Z,4.90
2017-12-12T17:59:01.863Z,4.73
2017-12-12T18:01:29.856Z,5.60
2017-12-12T18:03:57.588Z,5.40
2017-12-12T18:06:24.420Z,5.73
2017-12-12T18:08:51.162Z,8.43
2017-12-12T18:11:17.935Z,7.43
2017-12-12T18:13:44.662Z,5.83
2017-12-12T18:16:11.426Z,21.30
2017-12-12T18:18:38.163Z,22.70
2017-12-12T18:21:04.915Z,22.07
2017-12-12T18:23:31.633Z,6.00
2017-12-12T18:25:58.373Z,4.60
2017-12-12T18:28:25.214Z,5.43
2017-12-12T18:30:52.019Z,5.43
2017-12-12T18:33:18.745Z,5.30
2017-12-12T18:35:45.508Z,5.27
2017-12-12T18:38:12.237Z,4.90
2017-12-12T18:40:38.991Z,6.67
2017-12-12T18:43:05.729Z,7.80
2017-12-12T18:45:32.452Z,5.10
2017-12-12T18:47:59.187Z,5.30
2017-12-12T18:50:25.977Z,5.30
2017-12-12T18:52:52.726Z,4.83
2017-12-12T18:55:19.473Z,6.30
2017-12-12T18:57:46.258Z,5.17
2017-12-12T19:00:13.141Z,5.00
2017-12-12T19:02:39.971Z,5.40
2017-12-12T19:05:06.846Z,5.10
2017-12-12T19:07:33.712Z,6.37
2017-12-12T19:10:00.607Z,6.20
2017-12-12T19:12:27.541Z,5.20
2017-12-12T19:14:54.441Z,5.13
2017-12-12T19:17:21.562Z,5.73
2017-12-12T19:19:48.472Z,4.87
2017-12-12T19:22:15.370Z,6.93
2017-12-12T19:24:43.319Z,6.40
2017-12-12T19:27:11.861Z,5.93
2017-12-12T19:29:39.667Z,5.63
2017-12-12T19:32:06.515Z,5.93
2017-12-12T19:34:33.347Z,5.87
2017-12-12T19:37:00.127Z,7.80
2017-12-12T19:39:27.230Z,4.93
2017-12-12T19:41:54.018Z,5.30
2017-12-12T19:44:20.745Z,5.77
2017-12-12T19:46:47.469Z,6.10
2017-12-12T19:49:14.216Z,5.47
2017-12-12T19:51:40.951Z,5.53
2017-12-12T19:54:07.696Z,5.40
2017-12-12T19:56:34.462Z,6.33
2017-12-12T19:59:02.225Z,8.50
2017-12-12T20:01:29.552Z,5.50
2017-12-12T20:03:56.911Z,5.20
2017-12-12T20:06:23.651Z,4.70
2017-12-12T20:08:50.416Z,6.13
2017-12-12T20:11:17.192Z,5.00
2017-12-12T20:13:43.932Z,6.27
2017-12-12T20:16:10.731Z,6.13
2017-12-12T20:18:37.527Z,5.70
2017-12-12T20:21:04.299Z,7.60
2017-12-12T20:23:31.194Z,6.63
2017-12-12T20:25:57.994Z,8.40
2017-12-12T20:28:24.731Z,6.73
2017-12-12T20:30:51.462Z,5.43
2017-12-12T20:33:18.503Z,6.53
2017-12-12T20:35:45.240Z,3.77
2017-12-12T20:38:11.970Z,2.10
2017-12-12T20:40:38.721Z,1.60
2017-12-12T20:43:05.449Z,2.20
2017-12-12T20:45:32.196Z,1.50
2017-12-12T20:47:58.938Z,1.30
2017-12-12T20:50:25.686Z,1.40
2017-12-12T20:52:52.415Z,2.07
2017-12-12T20:55:19.235Z,1.60
2017-12-12T20:57:46.044Z,2.00
2017-12-12T21:00:12.930Z,3.57
2017-12-12T21:02:39.815Z,2.63
2017-12-12T21:05:06.602Z,1.77
2017-12-12T21:07:36.324Z,1.10
2017-12-12T21:10:03.123Z,0.93
2017-12-12T21:12:30.052Z,1.50
2017-12-12T21:14:56.948Z,1.00
2017-12-12T21:17:23.756Z,2.00
2017-12-12T21:19:50.497Z,1.07
2017-12-12T21:22:17.342Z,0.80
2017-12-12T21:24:44.072Z,0.90
2017-12-12T21:27:10.802Z,1.90
2017-12-12T21:29:37.592Z,1.20
2017-12-12T21:32:04.390Z,0.83
2017-12-12T21:34:31.158Z,0.93
2017-12-12T21:36:57.886Z,0.80
2017-12-12T21:39:24.715Z,0.90
2017-12-12T21:41:51.431Z,1.20
2017-12-12T21:44:18.178Z,1.20
2017-12-12T21:46:44.931Z,1.50
2017-12-12T21:49:11.736Z,0.97
2017-12-12T21:51:38.441Z,0.90
2017-12-12T21:54:05.268Z,0.63
2017-12-12T21:56:32.110Z,0.77
2017-12-12T21:58:58.806Z,0.70
2017-12-12T22:01:25.550Z,0.80
2017-12-12T22:03:52.272Z,0.70
2017-12-12T22:06:18.995Z,0.87
2017-12-12T22:08:45.731Z,1.67
2017-12-12T22:11:12.461Z,0.70
2017-12-12T22:13:39.172Z,0.67
2017-12-12T22:16:05.920Z,0.93
2017-12-12T22:18:32.666Z,0.80
2017-12-12T22:20:59.391Z,0.60
2017-12-12T22:23:26.118Z,1.57
2017-12-12T22:25:52.820Z,0.80
2017-12-12T22:28:19.530Z,1.47
2017-12-12T22:30:46.261Z,0.70
2017-12-12T22:33:12.981Z,0.70
2017-12-12T22:35:39.707Z,0.60
2017-12-12T22:38:06.434Z,0.87
2017-12-12T22:40:33.151Z,1.33
2017-12-12T22:42:59.854Z,0.63
2017-12-12T22:45:26.598Z,0.93
2017-12-12T22:47:53.310Z,0.67
2017-12-12T22:50:20.042Z,0.50
2017-12-12T22:52:46.753Z,1.10
2017-12-12T22:55:13.479Z,1.23
2017-12-12T22:57:40.203Z,0.70
2017-12-12T23:00:06.979Z,2.20
2017-12-12T23:02:33.700Z,0.60
2017-12-12T23:05:00.455Z,0.73
2017-12-12T23:07:27.182Z,0.70
2017-12-12T23:09:53.884Z,0.60
2017-12-12T23:12:20.586Z,1.00
2017-12-12T23:14:47.314Z,1.50
2017-12-12T23:17:14.021Z,1.93
2017-12-12T23:19:40.912Z,0.90
2017-12-12T23:22:07.648Z,1.20
2017-12-12T23:24:34.355Z,1.10
2017-12-12T23:27:01.068Z,0.63
2017-12-12T23:29:27.786Z,0.87
2017-12-12T23:31:54.514Z,1.90
2017-12-12T23:34:21.223Z,1.00
2017-12-12T23:36:47.954Z,0.60
2017-12-12T23:39:14.694Z,1.00
2017-12-12T23:41:41.435Z,1.20
2017-12-12T23:44:08.152Z,0.50
2017-12-12T23:46:34.893Z,1.30
2017-12-12T23:49:01.623Z,0.63
2017-12-12T23:51:28.391Z,1.43
2017-12-12T23:53:55.211Z,0.70
2017-12-12T23:56:21.928Z,0.57
2017-12-12T23:58:48.690Z,0.60
